createdAt,value
2023-05-25T00:01:59.947Z,21.85
2023-05-25T00:04:30.892Z,20.20
2023-05-25T00:06:59.903Z,21.88
2023-05-25T00:09:28.224Z,21.15
2023-05-25T00:11:58.498Z,20.70
2023-05-25T00:14:27.169Z,20.83
2023-05-25T00:16:56.034Z,21.80
2023-05-25T00:19:25.283Z,21.02
2023-05-25T00:21:54.857Z,21.00
2023-05-25T00:24:23.415Z,21.23
2023-05-25T00:26:52.986Z,20.90
2023-05-25T00:29:21.561Z,21.33
2023-05-25T00:31:51.131Z,20.90
2023-05-25T00:34:20.275Z,20.30
2023-05-25T00:36:50.826Z,20.70
2023-05-25T00:39:19.804Z,21.05
2023-05-25T00:41:49.595Z,20.70
2023-05-25T00:44:29.367Z,19.55
2023-05-25T00:46:58.155Z,22.13
2023-05-25T00:49:35.139Z,20.30
2023-05-25T00:52:05.269Z,21.90
2023-05-25T00:54:37.791Z,21.35
2023-05-25T00:57:08.664Z,22.25
2023-05-25T00:59:47.730Z,22.55
2023-05-25T01:02:19.634Z,20.73
2023-05-25T01:04:53.048Z,21.38
2023-05-25T01:07:26.044Z,20.98
2023-05-25T01:10:01.703Z,20.50
2023-05-25T01:12:30.956Z,21.25
2023-05-25T01:15:02.404Z,22.10
2023-05-25T01:17:31.111Z,21.45
2023-05-25T01:20:24.577Z,23.25
2023-05-25T01:22:57.446Z,21.35
2023-05-25T01:25:33.110Z,21.52
2023-05-25T01:28:09.610Z,21.95
2023-05-25T01:30:41.271Z,21.35
2023-05-25T01:33:11.077Z,21.08
2023-05-25T01:35:41.631Z,21.05
2023-05-25T01:38:13.365Z,21.00
2023-05-25T01:40:41.825Z,21.40
2023-05-25T01:43:10.587Z,21.20
2023-05-25T01:45:39.152Z,21.42
2023-05-25T01:48:30.726Z,21.15
2023-05-25T01:51:07.910Z,21.38
2023-05-25T01:53:59.776Z,21.08
2023-05-25T01:56:32.147Z,20.13
2023-05-25T01:59:02.769Z,20.00
2023-05-25T02:04:04.122Z,19.50
2023-05-25T02:06:35.766Z,18.88
2023-05-25T02:09:08.211Z,20.55
2023-05-25T02:11:36.718Z,19.98
2023-05-25T02:14:05.803Z,20.35
2023-05-25T02:16:34.419Z,20.00
2023-05-25T02:19:04.200Z,21.15
2023-05-25T02:21:32.900Z,18.77
2023-05-25T02:24:01.888Z,21.17
2023-05-25T02:26:30.210Z,20.17
2023-05-25T02:29:02.124Z,20.05
2023-05-25T02:31:30.660Z,19.92
2023-05-25T02:34:00.697Z,19.15
2023-05-25T02:36:29.601Z,19.63
2023-05-25T02:38:58.428Z,18.55
2023-05-25T02:41:27.470Z,20.40
2023-05-25T02:43:56.550Z,18.80
2023-05-25T02:46:24.866Z,19.00
2023-05-25T02:48:53.653Z,18.48
2023-05-25T02:51:22.234Z,20.15
2023-05-25T02:53:50.978Z,19.85
2023-05-25T02:56:19.418Z,20.30
2023-05-25T02:58:49.234Z,18.58
2023-05-25T03:01:31.088Z,19.77
2023-05-25T03:04:00.372Z,19.52
2023-05-25T03:06:30.880Z,18.77
2023-05-25T03:09:07.647Z,19.27
2023-05-25T03:11:37.517Z,17.42
2023-05-25T03:14:06.767Z,17.23
2023-05-25T03:16:36.813Z,18.27
2023-05-25T03:19:07.723Z,17.45
2023-05-25T03:21:41.179Z,18.38
2023-05-25T03:24:10.378Z,18.58
2023-05-25T03:26:39.404Z,20.70
2023-05-25T03:29:08.439Z,21.42
2023-05-25T03:31:37.148Z,20.92
2023-05-25T03:34:07.226Z,21.15
2023-05-25T03:36:41.128Z,21.88
2023-05-25T03:41:39.075Z,17.77
2023-05-25T03:44:07.876Z,18.92
2023-05-25T03:46:36.797Z,17.00
2023-05-25T03:49:06.078Z,17.60
2023-05-25T03:51:34.513Z,17.15
2023-05-25T03:54:03.134Z,17.73
2023-05-25T03:56:33.887Z,16.70
2023-05-25T03:59:02.758Z,16.08
2023-05-25T04:01:31.294Z,16.17
2023-05-25T04:04:00.374Z,15.57
2023-05-25T04:06:30.212Z,15.50
2023-05-25T04:08:59.032Z,15.18
2023-05-25T04:11:29.331Z,14.55
2023-05-25T04:13:58.130Z,13.77
2023-05-25T04:16:29.694Z,15.02
2023-05-25T04:18:58.886Z,14.55
2023-05-25T04:21:27.413Z,13.88
2023-05-25T04:23:56.015Z,14.13
2023-05-25T04:26:26.648Z,14.45
2023-05-25T04:28:58.605Z,13.63
2023-05-25T04:31:35.737Z,14.02
2023-05-25T04:34:27.801Z,13.95
2023-05-25T04:37:09.299Z,14.07
2023-05-25T04:40:10.965Z,13.95
2023-05-25T04:42:40.767Z,13.75
2023-05-25T04:45:10.682Z,12.77
2023-05-25T04:47:41.441Z,13.55
2023-05-25T04:50:11.099Z,14.82
2023-05-25T04:52:40.233Z,13.77
2023-05-25T04:55:10.821Z,13.70
2023-05-25T04:57:42.379Z,13.85
2023-05-25T05:00:13.067Z,13.38
2023-05-25T05:02:44.269Z,12.52
2023-05-25T05:05:12.739Z,13.40
2023-05-25T05:07:41.394Z,13.38
2023-05-25T05:10:10.168Z,13.55
2023-05-25T05:12:41.406Z,13.52
2023-05-25T05:15:10.108Z,13.35
2023-05-25T05:17:41.604Z,12.82
2023-05-25T05:20:10.973Z,12.30
2023-05-25T05:22:40.517Z,12.38
2023-05-25T05:25:09.334Z,12.65
2023-05-25T05:27:37.981Z,12.23
2023-05-25T05:30:14.309Z,13.18
2023-05-25T05:32:44.663Z,11.75
2023-05-25T05:35:15.085Z,12.15
2023-05-25T05:37:47.145Z,12.18
2023-05-25T05:40:16.074Z,11.05
2023-05-25T05:42:44.849Z,11.63
2023-05-25T05:45:13.497Z,12.27
2023-05-25T05:47:42.153Z,11.15
2023-05-25T05:50:10.773Z,10.90
2023-05-25T05:52:41.238Z,10.57
2023-05-25T05:55:11.708Z,10.82
2023-05-25T05:57:42.117Z,10.80
2023-05-25T06:00:11.160Z,10.75
2023-05-25T06:02:45.507Z,10.80
2023-05-25T06:05:21.035Z,10.45
2023-05-25T06:07:49.909Z,10.15
2023-05-25T06:10:20.595Z,10.25
2023-05-25T06:12:50.242Z,10.13
2023-05-25T06:15:18.537Z,11.05
2023-05-25T06:17:49.090Z,10.05
2023-05-25T06:20:18.292Z,10.20
2023-05-25T06:22:48.058Z,11.10
2023-05-25T06:25:16.672Z,10.85
2023-05-25T06:27:46.268Z,9.48
2023-05-25T06:30:15.163Z,10.93
2023-05-25T06:32:44.401Z,10.38
2023-05-25T06:35:19.777Z,10.20
2023-05-25T06:37:51.166Z,10.45
2023-05-25T06:40:20.887Z,9.60
2023-05-25T06:42:49.544Z,9.63
2023-05-25T06:45:47.349Z,10.20
2023-05-25T06:48:16.299Z,9.90
2023-05-25T06:50:46.282Z,9.73
2023-05-25T06:53:15.329Z,9.50
2023-05-25T06:55:43.863Z,10.20
2023-05-25T06:58:12.661Z,9.60
2023-05-25T07:00:41.424Z,9.90
2023-05-25T07:03:10.105Z,9.27
2023-05-25T07:05:38.439Z,10.20
2023-05-25T07:08:07.074Z,10.57
2023-05-25T07:10:35.592Z,10.10
2023-05-25T07:13:04.331Z,10.02
2023-05-25T07:15:32.619Z,10.20
2023-05-25T07:28:54.392Z,10.00
2023-05-25T07:31:23.152Z,10.32
2023-05-25T07:33:51.539Z,9.48
2023-05-25T07:36:20.241Z,8.98
2023-05-25T07:38:48.936Z,9.45
2023-05-25T07:41:17.613Z,9.32
2023-05-25T07:43:46.180Z,8.85
2023-05-25T07:46:17.761Z,8.77
2023-05-25T07:48:46.496Z,8.80
2023-05-25T07:51:15.155Z,8.88
2023-05-25T07:53:43.749Z,9.20
2023-05-25T07:56:14.818Z,8.05
2023-05-25T07:58:44.102Z,8.60
2023-05-25T08:01:12.786Z,8.50
2023-05-25T08:06:16.754Z,8.25
2023-05-25T08:08:45.346Z,8.20
2023-05-25T08:11:16.458Z,8.30
2023-05-25T08:13:44.874Z,8.00
2023-05-25T08:16:13.497Z,7.95
2023-05-25T08:18:44.336Z,8.38
2023-05-25T08:21:13.876Z,7.53
2023-05-25T08:23:45.610Z,6.72
2023-05-25T08:26:31.682Z,7.93
2023-05-25T08:29:04.308Z,7.97
2023-05-25T08:31:33.767Z,6.95
2023-05-25T08:34:02.147Z,7.25
2023-05-25T08:36:34.004Z,8.32
2023-05-25T08:39:04.775Z,7.88
2023-05-25T08:41:36.246Z,7.65
2023-05-25T08:44:08.064Z,7.55
2023-05-25T08:46:37.382Z,7.60
2023-05-25T08:49:10.203Z,8.15
2023-05-25T08:51:51.292Z,7.30
2023-05-25T08:54:23.289Z,7.13
2023-05-25T08:56:55.320Z,7.60
2023-05-25T08:59:36.664Z,7.57
2023-05-25T09:02:31.698Z,7.00
2023-05-25T10:54:56.095Z,5.50
2023-05-25T10:57:25.678Z,5.85
2023-05-25T11:00:10.543Z,5.25
2023-05-25T11:02:50.353Z,5.57
2023-05-25T11:05:28.902Z,5.70
2023-05-25T11:07:59.105Z,6.22
2023-05-25T11:10:49.242Z,5.38
2023-05-25T11:13:44.403Z,5.47
2023-05-25T11:16:24.571Z,5.10
2023-05-25T11:18:57.665Z,5.22
2023-05-25T11:21:32.463Z,4.97
2023-05-25T11:24:04.380Z,5.30
2023-05-25T11:29:12.876Z,5.43
2023-05-25T11:32:00.814Z,4.88
2023-05-25T11:34:32.512Z,4.95
2023-05-25T11:37:04.194Z,5.20
2023-05-25T11:39:33.365Z,4.97
2023-05-25T11:42:07.400Z,5.32
2023-05-25T11:48:09.263Z,5.25
2023-05-25T11:51:06.638Z,5.07
2023-05-25T11:53:35.086Z,6.35
2023-05-25T11:56:08.283Z,4.82
2023-05-25T11:58:37.355Z,4.95
2023-05-25T12:01:20.502Z,5.00
2023-05-25T12:03:51.078Z,4.43
2023-05-25T12:06:36.837Z,4.90
2023-05-25T12:09:10.891Z,4.88
2023-05-25T12:11:39.676Z,4.93
2023-05-25T12:14:08.128Z,5.05
2023-05-25T12:16:41.867Z,4.97
2023-05-25T12:19:12.060Z,4.78
2023-05-25T12:21:41.896Z,4.93
2023-05-25T12:24:15.272Z,4.60
2023-05-25T12:26:52.206Z,4.55
2023-05-25T12:29:20.878Z,4.20
2023-05-25T12:31:49.629Z,4.70
2023-05-25T12:34:19.800Z,4.35
2023-05-25T12:36:53.083Z,4.00
2023-05-25T12:39:24.641Z,4.25
2023-05-25T12:41:54.998Z,4.93
2023-05-25T12:44:27.385Z,3.78
2023-05-25T12:46:56.919Z,3.95
2023-05-25T12:49:30.208Z,4.20
2023-05-25T12:52:01.399Z,4.07
2023-05-25T12:54:47.143Z,4.25
2023-05-25T13:00:06.510Z,3.70
2023-05-25T13:02:35.259Z,4.07
2023-05-25T13:05:03.804Z,3.97
2023-05-25T13:07:32.530Z,4.10
2023-05-25T13:10:00.939Z,3.80
2023-05-25T13:12:29.775Z,4.20
2023-05-25T13:14:58.181Z,3.80
2023-05-25T13:17:26.890Z,4.00
2023-05-25T13:19:55.304Z,4.15
2023-05-25T13:22:24.240Z,4.07
2023-05-25T13:24:52.696Z,3.78
2023-05-25T13:27:21.318Z,3.88
2023-05-25T13:29:49.708Z,3.45
2023-05-25T13:32:18.359Z,3.67
2023-05-25T13:34:46.831Z,3.67
2023-05-25T13:37:18.219Z,3.40
2023-05-25T13:39:52.231Z,3.53
2023-05-25T13:42:22.693Z,3.47
2023-05-25T13:44:52.615Z,3.55
2023-05-25T13:47:24.238Z,3.40
2023-05-25T13:49:53.423Z,3.40
2023-05-25T13:52:30.003Z,3.95
2023-05-25T13:54:58.635Z,3.60
2023-05-25T13:57:31.492Z,3.38
2023-05-25T14:00:03.666Z,3.53
2023-05-25T14:02:38.095Z,3.42
2023-05-25T14:05:10.890Z,3.70
2023-05-25T14:07:39.924Z,3.55
2023-05-25T14:10:09.971Z,3.60
2023-05-25T14:12:39.063Z,3.35
2023-05-25T14:15:08.808Z,3.67
2023-05-25T14:17:38.868Z,3.35
2023-05-25T14:20:12.824Z,3.42
2023-05-25T14:22:47.684Z,3.37
2023-05-25T14:25:15.935Z,3.67
2023-05-25T14:27:48.763Z,3.40
2023-05-25T14:30:23.668Z,3.40
2023-05-25T14:33:26.634Z,3.50
2023-05-25T14:35:57.586Z,3.85
2023-05-25T14:38:27.203Z,4.13
2023-05-25T14:40:56.537Z,3.70
2023-05-25T14:43:25.301Z,3.70
2023-05-25T14:45:53.580Z,3.85
2023-05-25T14:48:26.124Z,4.00
2023-05-25T14:50:54.504Z,3.92
2023-05-25T14:53:23.314Z,4.18
2023-05-25T14:55:54.016Z,3.90
2023-05-25T15:01:13.094Z,4.40
2023-05-25T15:03:42.095Z,3.75
2023-05-25T15:06:10.833Z,4.00
2023-05-25T15:08:39.683Z,3.72
2023-05-25T15:11:08.720Z,4.20
2023-05-25T15:13:37.440Z,3.83
2023-05-25T15:16:05.782Z,4.10
2023-05-25T15:18:34.455Z,4.22
2023-05-25T15:21:02.697Z,3.88
2023-05-25T15:23:32.251Z,4.60
2023-05-25T15:26:04.798Z,4.28
2023-05-25T15:28:34.427Z,3.80
2023-05-25T15:31:03.491Z,4.22
2023-05-25T15:33:48.582Z,4.28
2023-05-25T15:36:23.349Z,4.38
2023-05-25T15:41:20.475Z,4.75
2023-05-25T15:44:03.138Z,4.20
2023-05-25T15:46:31.556Z,3.90
2023-05-25T15:49:00.140Z,4.72
2023-05-25T15:51:28.484Z,4.30
2023-05-25T15:53:57.192Z,4.32
2023-05-25T15:56:26.498Z,4.30
2023-05-25T15:58:55.316Z,4.72
2023-05-25T16:01:23.712Z,4.55
2023-05-25T16:03:52.431Z,4.18
2023-05-25T16:06:21.041Z,4.07
2023-05-25T16:08:49.770Z,4.18
2023-05-25T16:11:18.022Z,4.32
2023-05-25T16:13:47.472Z,4.45
2023-05-25T16:16:15.864Z,4.93
2023-05-25T16:18:45.691Z,4.57
2023-05-25T16:21:14.241Z,4.47
2023-05-25T16:23:42.836Z,4.05
2023-05-25T16:26:11.449Z,4.63
2023-05-25T16:28:40.074Z,4.20
2023-05-25T16:31:08.532Z,4.43
2023-05-25T16:33:37.038Z,4.40
2023-05-25T16:36:05.819Z,4.10
2023-05-25T16:38:34.442Z,4.10
2023-05-25T16:41:02.765Z,4.10
2023-05-25T16:43:31.588Z,4.10
2023-05-25T16:45:59.808Z,4.47
2023-05-25T16:48:31.308Z,4.50
2023-05-25T16:50:59.615Z,4.13
2023-05-25T16:53:28.363Z,4.03
2023-05-25T16:55:56.600Z,4.18
2023-05-25T16:58:25.256Z,4.68
2023-05-25T17:00:53.762Z,4.22
2023-05-25T17:03:22.657Z,4.55
2023-05-25T17:05:53.111Z,4.30
2023-05-25T17:10:50.837Z,4.10
2023-05-25T17:13:19.377Z,4.35
2023-05-25T17:15:48.098Z,3.90
2023-05-25T17:18:17.027Z,3.88
2023-05-25T17:20:45.546Z,4.00
2023-05-25T17:23:16.908Z,4.30
2023-05-25T17:25:46.239Z,3.80
2023-05-25T17:28:14.984Z,4.20
2023-05-25T17:30:43.271Z,4.30
2023-05-25T17:33:12.008Z,3.97
2023-05-25T17:35:40.636Z,4.32
2023-05-25T17:38:09.223Z,4.30
2023-05-25T17:40:37.744Z,3.60
2023-05-25T17:43:06.472Z,3.90
2023-05-25T17:45:35.068Z,4.13
2023-05-25T17:48:03.770Z,4.22
2023-05-25T17:50:32.217Z,3.92
2023-05-25T17:53:01.028Z,4.05
2023-05-25T17:55:29.693Z,4.30
2023-05-25T18:00:30.879Z,4.70
2023-05-25T18:02:59.943Z,4.53
2023-05-25T18:05:28.663Z,4.30
2023-05-25T18:07:57.321Z,4.32
2023-05-25T18:10:25.538Z,4.40
2023-05-25T18:12:57.371Z,4.53
2023-05-25T18:17:54.413Z,4.60
2023-05-25T18:20:22.860Z,4.63
2023-05-25T18:22:54.279Z,4.80
2023-05-25T18:25:22.527Z,4.78
2023-05-25T18:27:51.239Z,4.38
2023-05-25T18:30:19.679Z,4.63
2023-05-25T18:32:48.364Z,4.30
2023-05-25T18:35:16.775Z,4.68
2023-05-25T18:37:45.320Z,4.53
2023-05-25T18:40:13.659Z,4.70
2023-05-25T18:42:42.336Z,4.88
2023-05-25T18:45:10.890Z,4.55
2023-05-25T18:47:39.529Z,4.78
2023-05-25T18:50:08.283Z,4.95
2023-05-25T18:53:02.612Z,4.57
2023-05-25T18:55:30.877Z,5.05
2023-05-25T18:57:59.450Z,4.75
2023-05-25T19:00:27.732Z,4.72
2023-05-25T19:02:57.440Z,4.95
2023-05-25T19:05:26.366Z,5.25
2023-05-25T19:07:59.671Z,4.93
2023-05-25T19:10:28.408Z,5.15
2023-05-25T19:12:56.987Z,4.63
2023-05-25T19:15:25.623Z,4.57
2023-05-25T19:17:54.289Z,4.78
2023-05-25T19:20:22.733Z,4.60
2023-05-25T19:22:51.536Z,5.07
2023-05-25T19:25:40.239Z,5.43
2023-05-25T19:28:08.907Z,4.90
2023-05-25T19:30:39.497Z,4.68
2023-05-25T19:33:08.426Z,4.97
2023-05-25T19:35:37.339Z,4.47
2023-05-25T19:38:05.969Z,4.03
2023-05-25T19:40:34.392Z,4.82
2023-05-25T19:43:06.200Z,4.20
2023-05-25T19:45:34.807Z,4.90
2023-05-25T19:48:03.813Z,5.18
2023-05-25T19:50:33.363Z,5.35
2023-05-25T19:53:01.971Z,4.82
2023-05-25T19:55:33.987Z,4.78
2023-05-25T19:58:05.732Z,4.40
2023-05-25T20:00:34.140Z,4.30
2023-05-25T20:03:03.087Z,4.13
2023-05-25T20:05:31.588Z,4.20
2023-05-25T20:08:00.235Z,4.50
2023-05-25T20:10:28.734Z,4.00
2023-05-25T20:12:57.694Z,4.30
2023-05-25T20:15:26.156Z,4.00
2023-05-25T20:17:54.956Z,4.63
2023-05-25T20:20:23.420Z,4.30
2023-05-25T20:22:52.088Z,4.32
2023-05-25T20:25:20.608Z,4.25
2023-05-25T20:27:49.249Z,4.22
2023-05-25T20:30:17.619Z,4.57
2023-05-25T20:32:46.642Z,4.38
2023-05-25T20:35:20.772Z,4.25
2023-05-25T20:37:49.357Z,3.90
2023-05-25T20:40:42.862Z,4.70
2023-05-25T20:43:37.442Z,4.60
2023-05-25T20:46:14.368Z,4.15
2023-05-25T20:48:42.970Z,4.13
2023-05-25T20:51:11.724Z,4.72
2023-05-25T20:53:40.660Z,4.35
2023-05-25T20:56:09.090Z,4.93
2023-05-25T20:58:37.736Z,4.30
2023-05-25T21:01:06.180Z,4.38
2023-05-25T21:03:38.386Z,4.57
2023-05-25T21:08:35.568Z,4.70
2023-05-25T21:11:03.882Z,4.30
2023-05-25T21:13:32.416Z,4.57
2023-05-25T21:16:00.924Z,4.63
2023-05-25T21:18:29.547Z,4.38
2023-05-25T21:20:57.795Z,4.68
2023-05-25T21:23:28.734Z,4.43
2023-05-25T21:25:57.745Z,4.57
2023-05-25T21:28:27.034Z,4.20
2023-05-25T21:30:55.420Z,4.40
2023-05-25T21:33:24.558Z,4.82
2023-05-25T21:35:52.807Z,4.38
2023-05-25T21:38:21.325Z,4.28
2023-05-25T21:40:49.931Z,4.85
2023-05-25T21:43:18.613Z,4.50
2023-05-25T21:45:47.511Z,4.70
2023-05-25T21:48:16.411Z,5.32
2023-05-25T21:50:44.839Z,4.82
2023-05-25T21:53:13.443Z,5.10
2023-05-25T21:55:41.640Z,5.15
2023-05-25T21:58:10.528Z,4.63
2023-05-25T22:00:39.051Z,5.50
2023-05-25T22:03:07.974Z,5.43
2023-05-25T22:05:36.567Z,5.00
2023-05-25T22:08:07.673Z,4.95
2023-05-25T22:10:36.897Z,4.45
2023-05-25T22:13:05.646Z,4.93
2023-05-25T22:15:34.520Z,4.80
2023-05-25T22:18:03.288Z,4.60
2023-05-25T22:20:31.788Z,4.45
2023-05-25T22:23:00.398Z,4.47
2023-05-25T22:25:28.769Z,4.47
2023-05-25T22:27:57.615Z,5.00
2023-05-25T22:30:26.058Z,4.60
2023-05-25T22:32:54.791Z,4.65
2023-05-25T22:35:23.607Z,4.65
2023-05-25T22:37:53.282Z,4.80
2023-05-25T22:40:22.213Z,4.45
2023-05-25T22:42:50.917Z,4.65
2023-05-25T22:45:21.241Z,4.85
2023-05-25T22:47:49.990Z,4.88
2023-05-25T22:50:18.566Z,4.70
2023-05-25T22:52:47.434Z,4.85
2023-05-25T22:55:16.482Z,4.60
2023-05-25T22:57:45.473Z,4.72
2023-05-25T23:00:14.083Z,4.75
2023-05-25T23:02:42.847Z,4.93
2023-05-25T23:05:11.400Z,4.63
2023-05-25T23:07:40.025Z,4.60
2023-05-25T23:10:08.893Z,5.10
2023-05-25T23:12:37.684Z,4.95
2023-05-25T23:15:08.219Z,4.85
2023-05-25T23:17:36.964Z,5.03
2023-05-25T23:20:07.638Z,5.20
2023-05-25T23:22:36.793Z,5.30
2023-05-25T23:25:05.769Z,4.97
2023-05-25T23:27:34.419Z,5.15
2023-05-25T23:30:04.129Z,5.57
2023-05-25T23:32:33.278Z,4.93
2023-05-25T23:35:01.698Z,5.35
2023-05-25T23:37:30.347Z,5.13
2023-05-25T23:39:58.593Z,5.90
2023-05-25T23:42:28.407Z,5.40
2023-05-25T23:44:57.210Z,6.40
2023-05-25T23:47:25.699Z,5.90
2023-05-25T23:49:53.925Z,5.80
2023-05-25T23:52:22.598Z,6.47
2023-05-25T23:54:51.867Z,6.07
2023-05-25T23:57:20.636Z,6.10
2023-05-25T23:59:48.909Z,5.95
